createdAt,value
2019-04-16T00:00:58.405Z,14.97
2019-04-16T00:03:28.249Z,10.17
2019-04-16T00:05:59.853Z,13.93
2019-04-16T00:08:43.823Z,12.37
2019-04-16T00:11:33.483Z,15.27
2019-04-16T00:14:21.075Z,15.80
2019-04-16T00:16:50.974Z,14.60
2019-04-16T00:19:20.805Z,16.37
2019-04-16T00:21:52.301Z,12.27
2019-04-16T00:24:23.782Z,16.27
2019-04-16T00:26:57.811Z,15.73
2019-04-16T00:29:25.196Z,13.23
2019-04-16T00:31:56.766Z,13.73
2019-04-16T00:34:26.550Z,13.83
2019-04-16T00:36:56.412Z,13.57
2019-04-16T00:39:26.204Z,12.30
2019-04-16T00:41:56.102Z,13.50
2019-04-16T00:44:25.861Z,15.50
2019-04-16T00:46:55.713Z,13.37
2019-04-16T00:49:26.554Z,13.23
2019-04-16T00:51:56.980Z,10.63
2019-04-16T00:54:26.802Z,14.00
2019-04-16T00:56:56.661Z,12.87
2019-04-16T00:59:26.382Z,11.97
2019-04-16T01:01:56.328Z,13.27
2019-04-16T01:04:26.056Z,10.87
2019-04-16T01:06:55.895Z,13.07
2019-04-16T01:09:25.877Z,10.37
2019-04-16T01:11:55.694Z,12.00
2019-04-16T01:14:26.865Z,11.13
2019-04-16T01:16:56.931Z,12.77
2019-04-16T01:19:26.783Z,11.90
2019-04-16T01:21:56.491Z,10.07
2019-04-16T01:24:26.358Z,16.00
2019-04-16T01:26:58.293Z,12.77
2019-04-16T01:29:27.759Z,11.77
2019-04-16T01:31:59.199Z,13.53
2019-04-16T01:34:48.342Z,13.97
2019-04-16T01:37:26.548Z,9.87
2019-04-16T01:40:00.862Z,14.17
2019-04-16T01:42:31.190Z,13.73
2019-04-16T01:45:00.959Z,11.07
2019-04-16T01:47:33.416Z,12.57
2019-04-16T01:50:02.199Z,11.53
2019-04-16T01:52:31.963Z,12.57
2019-04-16T01:55:01.817Z,12.07
2019-04-16T01:57:31.578Z,12.43
2019-04-16T02:00:01.524Z,12.70
2019-04-16T02:02:31.463Z,12.47
2019-04-16T02:05:01.356Z,11.60
2019-04-16T02:07:31.157Z,16.43
2019-04-16T02:10:06.427Z,10.77
2019-04-16T02:12:32.363Z,11.07
2019-04-16T02:15:02.222Z,15.27
2019-04-16T02:17:32.098Z,11.53
2019-04-16T02:20:05.551Z,15.40
2019-04-16T02:22:33.487Z,10.87
2019-04-16T02:25:04.084Z,10.93
2019-04-16T02:27:33.945Z,13.13
2019-04-16T02:30:05.175Z,10.40
2019-04-16T02:32:35.669Z,13.07
2019-04-16T02:35:07.088Z,14.20
2019-04-16T02:37:37.686Z,13.27
2019-04-16T02:40:08.564Z,13.80
2019-04-16T02:42:38.430Z,11.03
2019-04-16T02:45:08.684Z,10.83
2019-04-16T02:47:41.863Z,13.17
2019-04-16T02:50:11.866Z,11.57
2019-04-16T02:52:50.310Z,11.80
2019-04-16T02:55:20.936Z,10.73
2019-04-16T02:58:09.787Z,13.07
2019-04-16T03:00:42.522Z,13.40
2019-04-16T03:03:22.232Z,14.97
2019-04-16T03:06:00.660Z,14.97
2019-04-16T03:08:30.184Z,12.17
2019-04-16T03:11:01.337Z,11.73
2019-04-16T03:13:31.983Z,12.73
2019-04-16T03:16:13.251Z,12.30
2019-04-16T03:18:47.356Z,11.80
2019-04-16T03:21:18.513Z,12.83
2019-04-16T03:23:50.830Z,10.93
2019-04-16T03:26:22.861Z,12.57
2019-04-16T03:28:55.657Z,14.00
2019-04-16T03:31:26.219Z,16.77
2019-04-16T03:33:57.511Z,11.27
2019-04-16T03:36:29.535Z,13.97
2019-04-16T03:39:00.829Z,13.40
2019-04-16T03:41:32.576Z,14.50
2019-04-16T03:44:05.003Z,15.73
2019-04-16T03:46:36.106Z,16.53
2019-04-16T03:49:07.488Z,30.03
2019-04-16T03:51:39.327Z,38.20
2019-04-16T03:54:09.016Z,27.17
2019-04-16T03:56:38.734Z,19.80
2019-04-16T03:59:11.839Z,18.33
2019-04-16T04:01:40.069Z,18.57
2019-04-16T04:04:09.803Z,14.63
2019-04-16T04:06:40.592Z,12.33
2019-04-16T04:09:10.577Z,16.13
2019-04-16T04:11:41.178Z,17.10
2019-04-16T04:14:11.777Z,13.60
2019-04-16T04:16:41.639Z,12.10
2019-04-16T04:19:14.441Z,12.03
2019-04-16T04:21:42.752Z,13.00
2019-04-16T04:24:12.695Z,16.17
2019-04-16T04:26:44.114Z,12.53
2019-04-16T04:29:13.845Z,14.43
2019-04-16T04:31:43.532Z,14.03
2019-04-16T04:34:15.958Z,13.53
2019-04-16T04:36:44.693Z,14.07
2019-04-16T04:39:15.692Z,13.17
2019-04-16T04:41:45.770Z,12.07
2019-04-16T04:44:16.243Z,12.43
2019-04-16T04:46:46.965Z,13.60
2019-04-16T04:49:17.031Z,17.97
2019-04-16T04:51:46.895Z,14.13
2019-04-16T04:54:21.940Z,14.23
2019-04-16T04:56:48.369Z,13.27
2019-04-16T04:59:18.070Z,14.90
2019-04-16T05:01:47.802Z,15.03
2019-04-16T05:04:25.322Z,13.87
2019-04-16T05:06:57.267Z,15.07
2019-04-16T05:09:29.492Z,13.00
2019-04-16T05:11:59.243Z,14.13
2019-04-16T05:14:28.955Z,14.00
2019-04-16T05:16:58.728Z,12.47
2019-04-16T05:19:28.517Z,15.70
2019-04-16T05:21:58.252Z,13.60
2019-04-16T05:24:29.245Z,17.03
2019-04-16T05:26:59.485Z,13.10
2019-04-16T05:29:29.230Z,14.57
2019-04-16T05:31:59.012Z,14.33
2019-04-16T05:34:28.747Z,14.87
2019-04-16T05:36:58.435Z,13.50
2019-04-16T05:39:28.618Z,15.27
2019-04-16T05:41:58.483Z,15.17
2019-04-16T05:44:33.027Z,17.80
2019-04-16T05:46:59.669Z,13.37
2019-04-16T05:49:29.468Z,16.57
2019-04-16T05:52:02.924Z,15.67
2019-04-16T05:54:35.099Z,15.10
2019-04-16T05:57:06.704Z,13.57
2019-04-16T05:59:36.522Z,14.40
2019-04-16T06:02:20.087Z,13.93
2019-04-16T06:04:49.858Z,14.77
2019-04-16T06:07:19.571Z,11.57
2019-04-16T06:09:49.288Z,13.63
2019-04-16T06:12:21.136Z,12.57
2019-04-16T06:14:55.499Z,15.67
2019-04-16T06:17:43.337Z,14.27
2019-04-16T06:20:23.921Z,11.83
2019-04-16T06:23:10.667Z,13.07
2019-04-16T06:25:50.924Z,14.93
2019-04-16T06:28:25.035Z,11.70
2019-04-16T06:31:10.198Z,12.33
2019-04-16T06:33:44.087Z,12.07
2019-04-16T06:36:27.975Z,10.63
2019-04-16T06:39:02.375Z,12.87
2019-04-16T06:41:52.675Z,11.40
2019-04-16T06:44:24.246Z,11.30
2019-04-16T06:46:58.317Z,12.37
2019-04-16T06:49:34.553Z,13.83
2019-04-16T06:52:21.094Z,12.17
2019-04-16T06:55:00.427Z,13.03
2019-04-16T06:57:47.084Z,15.13
2019-04-16T07:00:34.074Z,12.23
2019-04-16T07:03:19.640Z,15.23
2019-04-16T07:05:56.880Z,13.17
2019-04-16T07:08:38.172Z,11.70
2019-04-16T07:11:10.153Z,12.63
2019-04-16T07:13:42.268Z,14.17
2019-04-16T07:16:11.283Z,12.57
2019-04-16T07:18:41.095Z,13.13
2019-04-16T07:21:10.948Z,13.07
2019-04-16T07:23:40.869Z,16.73
2019-04-16T07:26:13.864Z,11.30
2019-04-16T07:28:57.934Z,10.77
2019-04-16T07:31:33.372Z,13.20
2019-04-16T07:33:59.116Z,11.70
2019-04-16T07:36:34.008Z,15.47
2019-04-16T07:39:13.257Z,13.80
2019-04-16T07:43:47.020Z,12.47
2019-04-16T07:44:41.288Z,12.90
2019-04-16T07:47:20.077Z,13.70
2019-04-16T07:49:52.439Z,10.43
2019-04-16T07:52:24.155Z,11.33
2019-04-16T07:54:55.592Z,11.47
2019-04-16T07:57:26.677Z,14.37
2019-04-16T07:59:57.735Z,12.70
2019-04-16T08:02:27.690Z,11.03
2019-04-16T08:04:57.674Z,12.40
2019-04-16T08:07:27.470Z,14.23
2019-04-16T08:10:01.393Z,11.97
2019-04-16T08:12:30.659Z,9.57
2019-04-16T08:15:12.640Z,11.20
2019-04-16T08:17:31.679Z,12.40
2019-04-16T08:20:01.523Z,11.80
2019-04-16T08:22:31.455Z,9.80
2019-04-16T08:25:04.080Z,12.00
2019-04-16T08:27:34.083Z,12.63
2019-04-16T08:30:06.414Z,13.00
2019-04-16T08:32:40.239Z,12.60
2019-04-16T08:35:10.526Z,13.13
2019-04-16T08:37:48.862Z,13.87
2019-04-16T08:40:12.259Z,14.37
2019-04-16T08:42:44.837Z,12.50
2019-04-16T08:45:14.556Z,11.17
2019-04-16T08:47:45.092Z,12.17
2019-04-16T08:50:15.908Z,11.50
2019-04-16T08:52:46.083Z,12.43
2019-04-16T08:55:15.872Z,11.00
2019-04-16T08:57:47.012Z,11.70
2019-04-16T09:00:17.695Z,13.30
2019-04-16T09:02:47.488Z,12.73
2019-04-16T09:05:17.608Z,12.77
2019-04-16T09:07:50.661Z,12.03
2019-04-16T09:10:23.849Z,12.20
2019-04-16T09:13:03.001Z,11.40
2019-04-16T09:15:27.981Z,12.93
2019-04-16T09:18:15.927Z,12.83
2019-04-16T09:20:46.972Z,14.53
2019-04-16T09:23:16.745Z,13.20
2019-04-16T09:25:48.190Z,13.27
2019-04-16T09:28:25.615Z,11.90
2019-04-16T09:30:52.802Z,13.73
2019-04-16T09:33:26.749Z,13.17
2019-04-16T09:35:58.109Z,12.00
2019-04-16T09:38:38.559Z,12.43
2019-04-16T09:41:21.996Z,12.43
2019-04-16T09:43:57.121Z,11.90
2019-04-16T09:46:49.865Z,13.63
2019-04-16T09:48:59.521Z,13.33
2019-04-16T09:51:29.475Z,15.40
2019-04-16T09:53:59.343Z,12.83
2019-04-16T09:56:30.316Z,16.03
2019-04-16T09:59:03.597Z,12.80
2019-04-16T10:01:44.140Z,12.90
2019-04-16T10:04:15.694Z,12.50
2019-04-16T10:06:45.530Z,13.93
2019-04-16T10:09:19.864Z,12.10
2019-04-16T10:11:52.821Z,13.17
2019-04-16T10:14:22.799Z,13.97
2019-04-16T10:16:52.630Z,13.40
2019-04-16T10:19:22.438Z,14.63
2019-04-16T10:21:54.217Z,13.13
2019-04-16T10:24:41.542Z,13.33
2019-04-16T10:27:12.903Z,13.47
2019-04-16T10:29:42.699Z,12.20
2019-04-16T10:32:12.866Z,14.43
2019-04-16T10:34:42.754Z,13.27
2019-04-16T10:37:12.784Z,13.30
2019-04-16T10:39:47.255Z,13.60
2019-04-16T10:42:19.207Z,15.13
2019-04-16T10:44:56.049Z,13.60
2019-04-16T10:47:27.405Z,15.03
2019-04-16T10:49:58.811Z,13.70
2019-04-16T10:52:46.608Z,12.37
2019-04-16T10:55:34.304Z,12.87
2019-04-16T10:58:22.098Z,16.70
2019-04-16T11:00:53.561Z,12.63
2019-04-16T11:03:28.450Z,13.27
2019-04-16T11:05:58.150Z,13.53
2019-04-16T11:08:28.420Z,12.83
2019-04-16T11:10:58.217Z,12.97
2019-04-16T11:13:35.700Z,14.60
2019-04-16T11:16:07.207Z,12.50
2019-04-16T11:18:36.975Z,13.43
2019-04-16T11:21:07.006Z,14.57
2019-04-16T11:23:36.950Z,14.77
2019-04-16T11:26:06.821Z,15.67
2019-04-16T11:28:36.613Z,15.20
2019-04-16T11:31:08.527Z,13.60
2019-04-16T11:33:38.385Z,15.47
2019-04-16T11:36:18.961Z,14.20
2019-04-16T11:38:40.030Z,13.93
2019-04-16T11:41:09.808Z,13.90
2019-04-16T11:43:39.609Z,13.50
2019-04-16T11:46:09.632Z,13.83
2019-04-16T11:48:39.471Z,15.33
2019-04-16T11:51:09.423Z,13.47
2019-04-16T11:53:39.139Z,12.37
2019-04-16T11:56:09.059Z,14.30
2019-04-16T11:58:43.223Z,16.53
2019-04-16T12:01:27.239Z,15.83
2019-04-16T12:03:58.757Z,15.60
2019-04-16T12:06:46.181Z,17.87
2019-04-16T12:09:23.643Z,17.63
2019-04-16T12:11:57.699Z,14.33
2019-04-16T12:14:45.466Z,15.13
2019-04-16T12:17:20.050Z,16.80
2019-04-16T12:20:03.770Z,17.63
2019-04-16T12:22:44.047Z,14.23
2019-04-16T12:25:26.691Z,16.27
2019-04-16T12:28:01.937Z,15.47
2019-04-16T12:30:38.139Z,15.13
2019-04-16T12:33:21.686Z,16.53
2019-04-16T12:35:55.762Z,19.73
2019-04-16T12:38:30.044Z,18.07
2019-04-16T12:41:13.248Z,16.00
2019-04-16T12:43:57.509Z,15.27
2019-04-16T12:46:37.987Z,16.00
2019-04-16T12:49:18.370Z,17.23
2019-04-16T12:51:52.798Z,17.10
2019-04-16T12:54:30.080Z,19.37
2019-04-16T12:57:18.068Z,17.23
2019-04-16T12:59:54.722Z,17.87
2019-04-16T13:02:27.961Z,15.97
2019-04-16T13:05:01.961Z,20.07
2019-04-16T13:07:42.389Z,18.53
2019-04-16T13:10:13.907Z,17.60
2019-04-16T13:12:45.401Z,21.83
2019-04-16T13:15:32.358Z,16.83
2019-04-16T13:18:19.947Z,18.77
2019-04-16T13:21:06.662Z,17.60
2019-04-16T13:23:41.021Z,16.83
2019-04-16T13:26:24.850Z,16.93
2019-04-16T13:28:56.173Z,18.73
2019-04-16T13:31:30.184Z,16.83
2019-04-16T13:34:00.265Z,19.00
2019-04-16T13:36:30.118Z,17.00
2019-04-16T13:39:10.616Z,17.90
2019-04-16T13:41:40.463Z,17.33
2019-04-16T13:44:18.354Z,18.90
2019-04-16T13:46:48.374Z,20.03
2019-04-16T13:49:19.863Z,17.77
2019-04-16T13:51:50.886Z,20.07
2019-04-16T13:54:22.366Z,15.87
2019-04-16T13:56:55.935Z,21.10
2019-04-16T13:59:30.216Z,17.20
2019-04-16T14:02:00.472Z,18.97
2019-04-16T14:04:32.062Z,18.80
2019-04-16T14:07:01.758Z,18.43
2019-04-16T14:09:33.150Z,20.50
2019-04-16T14:12:03.236Z,19.93
2019-04-16T14:14:33.037Z,18.80
2019-04-16T14:17:09.980Z,19.63
2019-04-16T14:19:34.725Z,18.67
2019-04-16T14:22:06.130Z,19.00
2019-04-16T14:24:35.851Z,19.73
2019-04-16T14:27:05.875Z,18.47
2019-04-16T14:29:35.817Z,21.90
2019-04-16T14:32:07.275Z,19.43
2019-04-16T14:34:54.068Z,21.63
2019-04-16T14:37:23.933Z,20.60
2019-04-16T14:40:11.772Z,17.70
2019-04-16T14:42:41.594Z,20.03
2019-04-16T14:45:22.437Z,18.67
2019-04-16T14:47:52.837Z,23.97
2019-04-16T14:50:24.305Z,19.57
2019-04-16T14:52:55.670Z,19.10
2019-04-16T14:55:33.225Z,19.77
2019-04-16T14:58:04.852Z,18.77
2019-04-16T15:00:52.780Z,21.43
2019-04-16T15:03:29.995Z,21.33
2019-04-16T15:06:10.372Z,22.57
2019-04-16T15:08:57.917Z,20.33
2019-04-16T15:11:41.248Z,20.83
2019-04-16T15:14:27.453Z,19.03
2019-04-16T15:17:01.739Z,23.17
2019-04-16T15:19:35.650Z,20.67
2019-04-16T15:22:19.447Z,19.93
2019-04-16T15:25:08.997Z,21.00
2019-04-16T15:27:58.217Z,23.17
2019-04-16T15:30:45.024Z,23.07
2019-04-16T15:33:31.188Z,19.93
2019-04-16T15:36:19.820Z,21.90
2019-04-16T15:39:02.959Z,21.77
2019-04-16T15:41:44.681Z,22.70
2019-04-16T15:44:23.645Z,21.03
2019-04-16T15:47:13.976Z,21.70
2019-04-16T15:49:55.622Z,20.73
2019-04-16T15:52:26.485Z,22.27
2019-04-16T15:55:00.900Z,20.27
2019-04-16T15:57:44.419Z,20.57
2019-04-16T16:00:19.004Z,21.23
2019-04-16T16:02:52.952Z,22.60
2019-04-16T16:05:33.210Z,24.23
2019-04-16T16:08:04.659Z,21.27
2019-04-16T16:10:36.059Z,20.73
2019-04-16T16:13:05.914Z,19.50
2019-04-16T16:15:40.260Z,20.37
2019-04-16T16:18:11.383Z,21.60
2019-04-16T16:20:41.268Z,21.30
2019-04-16T16:23:10.984Z,20.87
2019-04-16T16:25:42.065Z,21.47
2019-04-16T16:28:11.963Z,20.93
2019-04-16T16:30:44.909Z,22.30
2019-04-16T16:33:14.979Z,21.73
2019-04-16T16:35:56.870Z,20.33
2019-04-16T16:38:16.238Z,19.93
2019-04-16T16:40:49.505Z,24.27
2019-04-16T16:43:23.050Z,20.43
2019-04-16T16:45:54.443Z,21.70
2019-04-16T16:48:25.096Z,21.97
2019-04-16T16:50:54.804Z,20.87
2019-04-16T16:53:31.957Z,24.37
2019-04-16T16:56:03.438Z,19.97
2019-04-16T16:58:47.903Z,21.67
2019-04-16T17:01:34.797Z,21.97
2019-04-16T17:04:10.636Z,19.77
2019-04-16T17:06:40.373Z,20.93
2019-04-16T17:09:11.744Z,19.30
2019-04-16T17:11:43.288Z,22.00
2019-04-16T17:14:12.883Z,21.70
2019-04-16T17:16:42.636Z,21.37
2019-04-16T17:19:12.420Z,24.10
2019-04-16T17:21:42.330Z,21.13
2019-04-16T17:24:12.103Z,20.47
2019-04-16T17:26:41.850Z,22.53
2019-04-16T17:29:11.862Z,20.87
2019-04-16T17:31:41.711Z,18.80
2019-04-16T17:34:11.522Z,21.37
2019-04-16T17:36:41.387Z,19.57
2019-04-16T17:39:12.350Z,19.50
2019-04-16T17:41:43.851Z,18.70
2019-04-16T17:44:27.459Z,21.90
2019-04-16T17:46:58.882Z,18.33
2019-04-16T17:49:36.024Z,17.47
2019-04-16T17:52:07.492Z,20.20
2019-04-16T17:54:38.920Z,21.37
2019-04-16T17:57:29.863Z,19.67
2019-04-16T18:00:04.588Z,21.70
2019-04-16T18:02:44.471Z,19.93
2019-04-16T18:05:15.936Z,22.37
2019-04-16T18:07:50.394Z,22.40
2019-04-16T18:10:22.714Z,21.43
2019-04-16T18:12:57.320Z,19.57
2019-04-16T18:15:42.511Z,20.30
2019-04-16T18:18:17.176Z,22.13
2019-04-16T18:20:57.258Z,17.27
2019-04-16T18:23:33.736Z,21.93
2019-04-16T18:26:21.556Z,20.27
2019-04-16T18:28:55.715Z,20.90
2019-04-16T18:31:39.454Z,20.40
2019-04-16T18:34:26.103Z,21.67
2019-04-16T18:37:03.684Z,23.03
2019-04-16T18:39:37.422Z,19.23
2019-04-16T18:42:08.293Z,20.17
2019-04-16T18:44:56.418Z,20.43
2019-04-16T18:47:36.938Z,20.27
2019-04-16T18:50:09.631Z,20.90
2019-04-16T18:52:39.395Z,19.83
2019-04-16T18:55:09.576Z,21.83
2019-04-16T18:57:39.449Z,20.93
2019-04-16T19:00:28.685Z,20.40
2019-04-16T19:02:58.726Z,20.77
2019-04-16T19:05:28.432Z,24.00
2019-04-16T19:08:00.174Z,23.37
2019-04-16T19:10:29.772Z,21.00
2019-04-16T19:13:00.010Z,20.67
2019-04-16T19:15:30.246Z,24.03
2019-04-16T19:18:00.082Z,26.93
2019-04-16T19:20:29.890Z,23.80
2019-04-16T19:23:00.187Z,21.07
2019-04-16T19:25:30.331Z,23.27
2019-04-16T19:28:04.803Z,21.10
2019-04-16T19:30:32.026Z,22.40
2019-04-16T19:33:02.334Z,20.07
2019-04-16T19:35:32.489Z,21.70
2019-04-16T19:38:06.449Z,20.37
2019-04-16T19:40:34.132Z,20.93
2019-04-16T19:43:04.494Z,20.17
2019-04-16T19:45:36.071Z,21.90
2019-04-16T19:48:05.998Z,19.93
2019-04-16T19:50:38.875Z,21.07
2019-04-16T19:53:13.729Z,23.63
2019-04-16T19:55:45.946Z,21.17
2019-04-16T19:58:15.797Z,20.93
2019-04-16T20:00:47.736Z,22.30
2019-04-16T20:03:23.970Z,20.03
2019-04-16T20:05:59.462Z,20.73
2019-04-16T20:08:39.689Z,20.93
2019-04-16T20:11:20.364Z,20.77
2019-04-16T20:13:48.647Z,21.50
2019-04-16T20:16:20.977Z,19.77
2019-04-16T20:18:51.728Z,22.27
2019-04-16T20:21:22.145Z,17.73
2019-04-16T20:23:52.381Z,20.63
2019-04-16T20:26:22.468Z,22.13
2019-04-16T20:28:52.441Z,19.40
2019-04-16T20:31:22.546Z,21.37
2019-04-16T20:33:52.660Z,20.37
2019-04-16T20:36:24.953Z,19.47
2019-04-16T20:38:54.869Z,24.97
2019-04-16T20:41:24.678Z,19.70
2019-04-16T20:43:54.911Z,20.17
2019-04-16T20:46:28.572Z,24.03
2019-04-16T20:49:09.650Z,21.13
2019-04-16T20:51:33.367Z,22.27
2019-04-16T20:54:05.343Z,23.97
2019-04-16T20:56:35.258Z,25.40
2019-04-16T20:59:05.762Z,25.80
2019-04-16T21:01:37.818Z,19.97
2019-04-16T21:04:07.554Z,19.70
2019-04-16T21:06:40.825Z,22.87
2019-04-16T21:09:08.880Z,22.50
2019-04-16T21:11:41.171Z,21.90
2019-04-16T21:14:10.791Z,21.50
2019-04-16T21:16:41.605Z,20.63
2019-04-16T21:19:22.694Z,21.43
2019-04-16T21:21:44.899Z,24.17
2019-04-16T21:24:14.721Z,20.57
2019-04-16T21:26:45.430Z,22.43
2019-04-16T21:29:21.610Z,27.63
2019-04-16T21:31:54.846Z,23.37
2019-04-16T21:34:29.737Z,20.87
2019-04-16T21:37:15.660Z,20.10
2019-04-16T21:39:53.937Z,21.57
2019-04-16T21:42:23.963Z,20.90
2019-04-16T21:44:53.768Z,23.47
2019-04-16T21:47:24.560Z,21.17
2019-04-16T21:49:54.888Z,21.73
2019-04-16T21:52:24.693Z,22.63
2019-04-16T21:54:54.403Z,23.67
2019-04-16T21:57:24.216Z,20.47
2019-04-16T21:59:58.235Z,24.20
2019-04-16T22:02:29.679Z,22.70
2019-04-16T22:04:59.552Z,21.70
2019-04-16T22:07:29.265Z,20.03
2019-04-16T22:09:59.061Z,22.73
2019-04-16T22:12:28.861Z,23.97
2019-04-16T22:14:58.586Z,23.23
2019-04-16T22:17:28.354Z,19.57
2019-04-16T22:20:03.545Z,22.53
2019-04-16T22:22:29.514Z,22.67
2019-04-16T22:24:59.349Z,22.27
2019-04-16T22:27:29.041Z,22.73
2019-04-16T22:29:58.803Z,20.20
2019-04-16T22:32:30.861Z,23.37
2019-04-16T22:35:00.158Z,22.93
2019-04-16T22:37:30.661Z,22.57
2019-04-16T22:40:02.459Z,23.70
2019-04-16T22:42:33.862Z,29.57
2019-04-16T22:45:21.592Z,25.00
2019-04-16T22:47:52.870Z,22.00
2019-04-16T22:50:22.722Z,24.27
2019-04-16T22:52:52.605Z,24.77
2019-04-16T22:55:25.006Z,21.00
2019-04-16T22:57:53.800Z,25.43
2019-04-16T23:00:28.459Z,21.63
2019-04-16T23:02:58.588Z,26.47
2019-04-16T23:05:30.860Z,22.40
2019-04-16T23:07:59.923Z,25.77
2019-04-16T23:10:29.768Z,23.23
2019-04-16T23:13:01.320Z,24.10
2019-04-16T23:15:30.972Z,20.97
2019-04-16T23:18:00.725Z,22.40
2019-04-16T23:20:36.106Z,21.27
2019-04-16T23:23:02.119Z,24.40
2019-04-16T23:25:31.811Z,29.07
2019-04-16T23:28:01.656Z,20.53
2019-04-16T23:30:31.471Z,24.20
2019-04-16T23:33:01.913Z,22.33
2019-04-16T23:35:31.713Z,25.17
2019-04-16T23:38:01.732Z,22.30
2019-04-16T23:40:31.659Z,22.83
2019-04-16T23:43:05.481Z,21.63
2019-04-16T23:45:39.898Z,21.60
2019-04-16T23:48:20.084Z,21.13
2019-04-16T23:50:51.606Z,23.57
2019-04-16T23:53:25.761Z,23.53
2019-04-16T23:55:59.959Z,23.67
2019-04-16T23:58:37.383Z,20.73
